createdAt,value
2022-07-27T00:01:26.327Z,99029.91
2022-07-27T00:03:53.192Z,99030.92
2022-07-27T00:06:19.965Z,99032.46
2022-07-27T00:08:46.702Z,99033.69
2022-07-27T00:11:13.466Z,99031.91
2022-07-27T00:13:40.873Z,99033.54
2022-07-27T00:16:07.715Z,99033.15
2022-07-27T00:18:34.478Z,99029.12
2022-07-27T00:21:01.230Z,99029.98
2022-07-27T00:23:27.954Z,99027.40
2022-07-27T00:25:54.789Z,99028.50
2022-07-27T00:28:21.557Z,99031.77
2022-07-27T00:30:48.291Z,99029.48
2022-07-27T00:33:17.264Z,99030.31
2022-07-27T00:35:44.627Z,99024.66
2022-07-27T00:38:11.638Z,99027.84
2022-07-27T00:40:38.372Z,99030.31
2022-07-27T00:43:05.100Z,99031.27
2022-07-27T00:45:31.934Z,99029.98
2022-07-27T00:47:58.747Z,99030.09
2022-07-27T00:50:25.727Z,99030.09
2022-07-27T00:52:52.534Z,99031.91
2022-07-27T00:55:19.310Z,99028.86
2022-07-27T00:57:58.297Z,99026.91
2022-07-27T01:00:28.881Z,99025.39
2022-07-27T01:02:57.409Z,99030.09
2022-07-27T01:05:35.893Z,99034.27
2022-07-27T01:08:04.909Z,99030.08
2022-07-27T01:10:31.627Z,99032.70
2022-07-27T01:12:58.338Z,99033.27
2022-07-27T01:15:25.244Z,99034.11
2022-07-27T01:17:51.966Z,99037.91
2022-07-27T01:20:18.779Z,99033.73
2022-07-27T01:22:45.521Z,99028.79
2022-07-27T01:25:12.278Z,99027.20
2022-07-27T01:27:38.966Z,99031.45
2022-07-27T01:30:26.246Z,99031.12
2022-07-27T01:33:13.205Z,99028.83
2022-07-27T01:35:39.981Z,99030.97
2022-07-27T01:38:08.292Z,99030.67
2022-07-27T01:40:36.911Z,99029.33
2022-07-27T01:43:05.245Z,99029.52
2022-07-27T01:45:32.169Z,99026.44
2022-07-27T01:47:58.935Z,99029.92
2022-07-27T01:50:25.745Z,99028.43
2022-07-27T01:52:52.545Z,99026.52
2022-07-27T01:55:19.339Z,99025.76
2022-07-27T01:57:46.070Z,99026.04
2022-07-27T02:00:13.727Z,99022.88
2022-07-27T02:02:40.626Z,99023.06
2022-07-27T02:05:09.380Z,99023.15
2022-07-27T02:07:36.203Z,99019.38
2022-07-27T02:10:03.628Z,99021.42
2022-07-27T02:12:36.561Z,99019.16
2022-07-27T02:15:14.756Z,99021.87
2022-07-27T02:17:45.771Z,99018.31
2022-07-27T02:20:13.662Z,99022.89
2022-07-27T02:22:40.402Z,99026.09
2022-07-27T02:25:07.716Z,99026.77
2022-07-27T02:27:34.551Z,99028.92
2022-07-27T02:30:01.558Z,99028.02
2022-07-27T02:32:28.324Z,99028.39
2022-07-27T02:34:55.187Z,99033.23
2022-07-27T02:37:21.996Z,99035.13
2022-07-27T02:39:49.130Z,99034.58
2022-07-27T02:42:15.901Z,99034.88
2022-07-27T02:44:42.693Z,99030.52
2022-07-27T02:47:09.448Z,99037.14
2022-07-27T02:49:36.321Z,99037.80
2022-07-27T02:52:03.516Z,99039.14
2022-07-27T02:54:32.471Z,99040.13
2022-07-27T02:57:02.885Z,99043.17
2022-07-27T02:59:29.746Z,99041.52
2022-07-27T03:01:56.698Z,99049.29
2022-07-27T03:04:23.605Z,99046.36
2022-07-27T03:06:50.646Z,99047.44
2022-07-27T03:09:17.444Z,99043.45
2022-07-27T03:11:44.161Z,99041.29
2022-07-27T03:14:11.149Z,99041.16
2022-07-27T03:16:37.979Z,99039.83
2022-07-27T03:19:05.544Z,99045.71
2022-07-27T03:21:32.315Z,99047.29
2022-07-27T03:23:59.033Z,99046.02
2022-07-27T03:26:25.843Z,99046.23
2022-07-27T03:28:52.563Z,99044.79
2022-07-27T03:31:19.339Z,99045.75
2022-07-27T03:33:46.179Z,99043.85
2022-07-27T03:36:12.925Z,99045.45
2022-07-27T03:38:39.664Z,99045.59
2022-07-27T03:41:06.947Z,99048.82
2022-07-27T03:43:33.884Z,99049.70
2022-07-27T03:46:00.760Z,99046.39
2022-07-27T03:48:27.563Z,99042.49
2022-07-27T03:50:54.333Z,99043.34
2022-07-27T03:53:21.594Z,99039.40
2022-07-27T03:55:49.108Z,99046.69
2022-07-27T03:58:17.029Z,99052.36
2022-07-27T04:00:46.826Z,99048.46
2022-07-27T04:03:13.560Z,99051.63
2022-07-27T04:05:40.315Z,99046.16
2022-07-27T04:08:07.155Z,99046.40
2022-07-27T04:10:33.890Z,99045.10
2022-07-27T04:13:01.149Z,99037.41
2022-07-27T04:15:30.293Z,99041.03
2022-07-27T04:17:57.754Z,99039.10
2022-07-27T04:20:25.365Z,99039.30
2022-07-27T04:22:52.400Z,99040.59
2022-07-27T04:25:19.170Z,99037.32
2022-07-27T04:27:45.953Z,99031.65
2022-07-27T04:30:13.087Z,99034.44
2022-07-27T04:32:39.908Z,99039.27
2022-07-27T04:35:07.412Z,99041.98
2022-07-27T04:37:35.008Z,99041.39
2022-07-27T04:40:01.819Z,99046.08
2022-07-27T04:42:29.986Z,99040.27
2022-07-27T04:44:57.329Z,99043.67
2022-07-27T04:47:24.106Z,99047.12
2022-07-27T04:49:50.997Z,99049.83
2022-07-27T04:52:17.803Z,99053.57
2022-07-27T04:54:45.494Z,99051.45
2022-07-27T04:57:12.242Z,99045.63
2022-07-27T04:59:39.023Z,99041.95
2022-07-27T05:02:05.814Z,99040.31
2022-07-27T05:04:32.623Z,99043.77
2022-07-27T05:06:59.520Z,99046.67
2022-07-27T05:09:26.281Z,99052.13
2022-07-27T05:11:53.337Z,99047.34
2022-07-27T05:14:21.307Z,99049.09
2022-07-27T05:16:49.453Z,99052.19
2022-07-27T05:19:16.388Z,99055.52
2022-07-27T05:21:43.445Z,99055.32
2022-07-27T05:24:10.336Z,99057.64
2022-07-27T05:26:37.767Z,99056.73
2022-07-27T05:29:04.625Z,99053.15
2022-07-27T05:31:31.463Z,99054.18
2022-07-27T05:33:58.826Z,99053.27
2022-07-27T05:36:26.298Z,99051.88
2022-07-27T05:38:53.090Z,99053.63
2022-07-27T05:41:24.719Z,99053.11
2022-07-27T05:43:51.645Z,99055.48
2022-07-27T05:46:18.442Z,99053.83
2022-07-27T05:48:45.473Z,99054.31
2022-07-27T05:51:12.268Z,99057.80
2022-07-27T05:53:39.086Z,99058.48
2022-07-27T05:56:07.894Z,99060.44
2022-07-27T05:58:34.763Z,99060.98
2022-07-27T06:01:01.667Z,99056.30
2022-07-27T06:03:28.560Z,99058.20
2022-07-27T06:06:15.341Z,99057.36
2022-07-27T06:08:42.120Z,99062.47
2022-07-27T06:11:27.448Z,99065.36
2022-07-27T06:13:55.957Z,99063.44
2022-07-27T06:16:23.577Z,99063.27
2022-07-27T06:18:50.480Z,99064.89
2022-07-27T06:21:17.276Z,99066.02
2022-07-27T06:23:44.131Z,99067.78
2022-07-27T06:26:10.898Z,99066.38
2022-07-27T06:28:37.648Z,99062.20
2022-07-27T06:31:04.529Z,99064.72
2022-07-27T06:33:33.555Z,99070.73
2022-07-27T06:36:01.586Z,99072.00
2022-07-27T06:38:28.629Z,99070.95
2022-07-27T06:40:55.726Z,99069.30
2022-07-27T06:43:23.426Z,99067.50
2022-07-27T06:45:50.187Z,99075.40
2022-07-27T06:48:17.259Z,99075.81
2022-07-27T06:50:44.181Z,99070.45
2022-07-27T06:53:10.947Z,99070.39
2022-07-27T06:55:37.690Z,99065.34
2022-07-27T06:58:04.511Z,99065.34
2022-07-27T07:00:31.616Z,99067.50
2022-07-27T07:03:03.736Z,99066.83
2022-07-27T07:05:30.950Z,99064.10
2022-07-27T07:07:57.825Z,99067.33
2022-07-27T07:10:25.143Z,99065.85
2022-07-27T07:12:56.115Z,99068.89
2022-07-27T07:15:26.527Z,99068.14
2022-07-27T07:17:54.341Z,99065.91
2022-07-27T07:20:21.283Z,99068.52
2022-07-27T07:22:48.059Z,99073.45
2022-07-27T07:25:14.874Z,99071.20
2022-07-27T07:27:41.860Z,99067.14
2022-07-27T07:30:08.993Z,99062.77
2022-07-27T07:32:35.735Z,99068.44
2022-07-27T07:35:04.155Z,99069.59
2022-07-27T07:37:33.898Z,99069.80
2022-07-27T07:40:25.308Z,99065.41
2022-07-27T07:42:49.963Z,99064.69
2022-07-27T07:45:16.784Z,99065.91
2022-07-27T07:47:43.878Z,99063.63
2022-07-27T07:50:10.645Z,99065.33
2022-07-27T07:52:37.382Z,99065.59
2022-07-27T07:55:04.727Z,99065.76
2022-07-27T07:57:31.511Z,99063.48
2022-07-27T07:59:58.248Z,99062.41
2022-07-27T08:02:25.032Z,99064.05
2022-07-27T08:04:54.452Z,99060.43
2022-07-27T08:07:21.260Z,99069.90
2022-07-27T08:09:48.042Z,99065.95
2022-07-27T08:12:14.809Z,99073.52
2022-07-27T08:14:41.552Z,99067.36
2022-07-27T08:17:08.415Z,99066.59
2022-07-27T08:19:39.859Z,99067.48
2022-07-27T08:22:07.029Z,99064.88
2022-07-27T08:24:33.868Z,99064.49
2022-07-27T08:27:00.673Z,99067.70
2022-07-27T08:29:36.686Z,99068.56
2022-07-27T08:32:05.941Z,99069.17
2022-07-27T08:34:33.006Z,99068.23
2022-07-27T08:36:59.730Z,99067.33
2022-07-27T08:40:19.967Z,99067.98
2022-07-27T08:42:13.276Z,99067.52
2022-07-27T08:44:41.157Z,99063.67
2022-07-27T08:47:11.001Z,99064.14
2022-07-27T08:49:44.022Z,99066.15
2022-07-27T08:52:11.385Z,99063.95
2022-07-27T08:54:39.438Z,99069.19
2022-07-27T08:57:10.199Z,99064.61
2022-07-27T08:59:37.077Z,99067.48
2022-07-27T09:02:10.760Z,99066.28
2022-07-27T09:04:42.051Z,99071.54
2022-07-27T09:07:08.803Z,99065.05
2022-07-27T09:09:46.091Z,99069.95
2022-07-27T09:12:12.895Z,99070.02
2022-07-27T09:14:40.866Z,99068.50
2022-07-27T09:20:19.625Z,99062.50
2022-07-27T09:22:56.272Z,99065.39
2022-07-27T09:25:44.837Z,99067.27
2022-07-27T09:28:10.776Z,99067.27
2022-07-27T09:30:44.048Z,99064.45
2022-07-27T09:33:11.094Z,99063.15
2022-07-27T09:35:38.021Z,99062.58
2022-07-27T09:38:24.436Z,99061.20
2022-07-27T09:41:01.577Z,99067.31
2022-07-27T09:44:28.443Z,99069.20
2022-07-27T09:49:28.755Z,99066.88
2022-07-27T09:51:59.930Z,99069.16
2022-07-27T09:54:27.879Z,99068.77
2022-07-27T09:57:01.579Z,99071.14
2022-07-27T09:59:29.040Z,99067.60
2022-07-27T10:01:56.398Z,99065.69
2022-07-27T10:04:23.803Z,99068.65
2022-07-27T10:07:10.623Z,99064.70
2022-07-27T10:09:37.552Z,99067.66
2022-07-27T10:12:04.764Z,99069.16
2022-07-27T10:14:32.783Z,99069.20
2022-07-27T10:16:59.550Z,99067.70
2022-07-27T10:19:30.688Z,99071.56
2022-07-27T10:21:57.570Z,99068.48
2022-07-27T10:24:33.787Z,99070.05
2022-07-27T10:27:29.446Z,99073.90
2022-07-27T10:29:56.635Z,99069.48
2022-07-27T10:32:28.813Z,99067.29
2022-07-27T10:34:55.568Z,99065.60
2022-07-27T10:37:29.041Z,99063.82
2022-07-27T10:40:16.724Z,99065.48
2022-07-27T10:42:46.076Z,99063.80
2022-07-27T10:45:16.121Z,99057.84
2022-07-27T10:47:47.513Z,99061.23
2022-07-27T10:50:17.393Z,99059.27
2022-07-27T10:52:44.843Z,99058.07
2022-07-27T10:55:30.427Z,99061.33
2022-07-27T10:58:03.442Z,99063.11
2022-07-27T11:00:54.190Z,99071.55
2022-07-27T11:03:30.866Z,99073.52
2022-07-27T11:06:01.290Z,99078.48
2022-07-27T11:08:46.949Z,99080.02
2022-07-27T11:11:16.102Z,99084.90
2022-07-27T11:13:42.915Z,99085.75
2022-07-27T11:16:26.214Z,99081.36
2022-07-27T11:18:55.233Z,99084.37
2022-07-27T11:21:30.370Z,99085.04
2022-07-27T11:24:03.872Z,99084.28
2022-07-27T11:26:37.425Z,99087.20
2022-07-27T11:29:07.286Z,99084.91
2022-07-27T11:34:42.062Z,99088.44
2022-07-27T11:37:12.562Z,99087.72
2022-07-27T11:40:00.359Z,99090.02
2022-07-27T11:42:37.180Z,99101.23
2022-07-27T11:45:05.214Z,99104.66
2022-07-27T11:47:34.102Z,99107.13
2022-07-27T11:50:08.611Z,99105.36
2022-07-27T11:52:35.557Z,99112.41
2022-07-27T11:55:02.765Z,99111.67
2022-07-27T11:57:33.001Z,99109.38
2022-07-27T11:59:59.809Z,99111.80
2022-07-27T12:02:27.417Z,99109.33
2022-07-27T12:04:57.886Z,99109.23
2022-07-27T12:07:30.469Z,99109.36
2022-07-27T12:09:59.839Z,99105.70
2022-07-27T12:12:33.557Z,99104.56
2022-07-27T12:15:16.684Z,99106.36
2022-07-27T12:17:57.355Z,99108.27
2022-07-27T12:20:26.476Z,99108.88
2022-07-27T12:22:54.005Z,99110.23
2022-07-27T12:25:21.328Z,99113.61
2022-07-27T12:28:07.408Z,99111.77
2022-07-27T12:30:47.911Z,99112.57
2022-07-27T12:33:37.223Z,99112.10
2022-07-27T12:36:05.666Z,99112.00
2022-07-27T12:38:39.536Z,99109.10
2022-07-27T12:41:06.346Z,99108.03
2022-07-27T12:43:33.140Z,99109.67
2022-07-27T12:46:00.717Z,99106.80
2022-07-27T12:48:28.872Z,99106.95
2022-07-27T12:51:03.631Z,99108.27
2022-07-27T12:53:30.903Z,99109.02
2022-07-27T12:55:59.049Z,99109.86
2022-07-27T12:58:25.812Z,99110.14
2022-07-27T13:00:52.645Z,99109.06
2022-07-27T13:03:19.416Z,99105.64
2022-07-27T13:05:46.233Z,99107.87
2022-07-27T13:08:13.504Z,99107.14
2022-07-27T13:10:44.667Z,99105.34
2022-07-27T13:13:11.680Z,99100.57
2022-07-27T13:15:38.464Z,99109.13
2022-07-27T13:18:05.334Z,99112.03
2022-07-27T13:20:32.337Z,99109.99
2022-07-27T13:22:59.203Z,99111.38
2022-07-27T13:25:25.996Z,99111.11
2022-07-27T13:27:52.860Z,99112.02
2022-07-27T13:30:19.731Z,99111.66
2022-07-27T13:32:47.097Z,99112.20
2022-07-27T13:35:14.448Z,99112.85
2022-07-27T13:37:41.316Z,99122.30
2022-07-27T13:40:09.171Z,99114.50
2022-07-27T13:42:36.057Z,99121.52
2022-07-27T13:45:09.339Z,99124.69
2022-07-27T13:47:37.061Z,99126.29
2022-07-27T13:50:04.565Z,99132.66
2022-07-27T13:52:31.327Z,99139.17
2022-07-27T13:54:58.132Z,99139.44
2022-07-27T13:57:24.889Z,99148.32
2022-07-27T13:59:51.687Z,99154.76
2022-07-27T14:02:20.649Z,99158.41
2022-07-27T14:04:50.168Z,99155.20
2022-07-27T14:07:17.116Z,99157.56
2022-07-27T14:10:02.743Z,99161.74
2022-07-27T14:12:29.706Z,99166.70
2022-07-27T14:14:56.477Z,99163.36
2022-07-27T14:17:23.635Z,99162.17
2022-07-27T14:19:50.388Z,99159.63
2022-07-27T14:22:17.262Z,99157.23
2022-07-27T14:24:44.154Z,99159.80
2022-07-27T14:27:10.952Z,99158.78
2022-07-27T14:29:37.729Z,99160.73
2022-07-27T14:32:04.717Z,99160.04
2022-07-27T14:34:31.609Z,99161.98
2022-07-27T14:36:58.387Z,99161.67
2022-07-27T14:39:25.201Z,99161.88
2022-07-27T14:41:51.934Z,99162.21
2022-07-27T14:44:19.178Z,99159.66
2022-07-27T14:46:46.479Z,99162.48
2022-07-27T14:49:14.991Z,99161.90
2022-07-27T14:51:41.822Z,99163.21
2022-07-27T14:54:08.681Z,99161.48
2022-07-27T14:56:36.634Z,99165.39
2022-07-27T14:59:04.143Z,99165.34
2022-07-27T15:01:30.953Z,99164.30
2022-07-27T15:03:57.801Z,99161.42
2022-07-27T15:06:24.587Z,99160.71
2022-07-27T15:08:51.340Z,99163.09
2022-07-27T15:11:18.046Z,99165.75
2022-07-27T15:13:44.781Z,99163.69
2022-07-27T15:16:12.081Z,99160.95
2022-07-27T15:18:39.113Z,99163.39
2022-07-27T15:21:13.580Z,99164.94
2022-07-27T15:23:42.807Z,99164.42
2022-07-27T15:26:09.772Z,99162.62
2022-07-27T15:28:36.600Z,99161.44
2022-07-27T15:31:03.675Z,99161.36
2022-07-27T15:33:30.646Z,99154.48
2022-07-27T15:35:57.414Z,99159.08
2022-07-27T15:38:24.186Z,99159.19
2022-07-27T15:40:50.946Z,99155.89
2022-07-27T15:43:17.810Z,99154.44
2022-07-27T15:45:51.852Z,99151.69
2022-07-27T15:48:19.777Z,99146.80
2022-07-27T15:50:48.769Z,99146.01
2022-07-27T15:53:15.711Z,99147.78
2022-07-27T15:55:43.174Z,99142.59
2022-07-27T15:58:09.965Z,99143.91
2022-07-27T16:00:40.736Z,99146.58
2022-07-27T16:03:12.119Z,99149.20
2022-07-27T16:05:39.711Z,99155.49
2022-07-27T16:08:09.159Z,99157.92
2022-07-27T16:10:37.263Z,99153.20
2022-07-27T16:13:05.594Z,99159.13
2022-07-27T16:15:51.572Z,99164.00
2022-07-27T16:18:18.422Z,99157.23
2022-07-27T16:20:45.169Z,99168.23
2022-07-27T16:23:18.659Z,99167.88
2022-07-27T16:26:04.152Z,99165.71
2022-07-27T16:28:31.772Z,99169.83
2022-07-27T16:30:58.622Z,99166.24
2022-07-27T16:33:25.483Z,99161.91
2022-07-27T16:35:52.236Z,99165.48
2022-07-27T16:38:18.989Z,99169.66
2022-07-27T16:40:45.759Z,99172.16
2022-07-27T16:43:12.540Z,99176.11
2022-07-27T16:45:39.288Z,99178.59
2022-07-27T16:48:06.366Z,99181.34
2022-07-27T16:50:33.139Z,99180.55
2022-07-27T16:53:01.433Z,99182.59
2022-07-27T16:55:28.457Z,99186.60
2022-07-27T16:57:56.001Z,99186.96
2022-07-27T17:00:22.933Z,99188.08
2022-07-27T17:02:50.126Z,99188.67
2022-07-27T17:05:16.975Z,99189.92
2022-07-27T17:07:43.870Z,99186.71
2022-07-27T17:10:10.770Z,99187.27
2022-07-27T17:12:39.033Z,99184.43
2022-07-27T17:15:07.364Z,99185.70
2022-07-27T17:17:34.558Z,99185.88
2022-07-27T17:20:01.425Z,99189.92
2022-07-27T17:22:28.239Z,99189.26
2022-07-27T17:24:55.000Z,99191.70
2022-07-27T17:27:22.083Z,99197.03
2022-07-27T17:29:48.975Z,99193.16
2022-07-27T17:32:15.876Z,99193.52
2022-07-27T17:34:43.528Z,99190.60
2022-07-27T17:37:10.370Z,99188.19
2022-07-27T17:39:37.172Z,99189.20
2022-07-27T17:42:04.501Z,99188.45
2022-07-27T17:44:32.361Z,99195.59
2022-07-27T17:47:01.112Z,99194.19
2022-07-27T17:49:28.445Z,99196.83
2022-07-27T17:51:55.516Z,99197.61
2022-07-27T17:54:23.727Z,99202.79
2022-07-27T17:56:50.557Z,99209.30
2022-07-27T18:02:05.068Z,99211.80
2022-07-27T18:04:37.079Z,99218.83
2022-07-27T18:07:05.826Z,99226.77
2022-07-27T18:09:33.528Z,99236.27
2022-07-27T18:12:00.627Z,99241.40
2022-07-27T18:14:27.607Z,99246.26
2022-07-27T18:16:54.527Z,99248.98
2022-07-27T18:19:21.248Z,99251.33
2022-07-27T18:21:48.075Z,99246.11
2022-07-27T18:24:15.224Z,99245.00
2022-07-27T18:26:42.197Z,99245.95
2022-07-27T18:29:09.966Z,99248.07
2022-07-27T18:31:37.278Z,99246.90
2022-07-27T18:34:06.829Z,99250.96
2022-07-27T18:36:38.898Z,99255.30
2022-07-27T18:39:06.674Z,99257.67
2022-07-27T18:41:33.552Z,99257.87
2022-07-27T18:44:00.387Z,99258.38
2022-07-27T18:46:27.439Z,99263.52
2022-07-27T18:48:54.424Z,99265.19
2022-07-27T18:51:21.365Z,99268.08
2022-07-27T18:53:49.010Z,99270.63
2022-07-27T18:56:16.031Z,99275.86
2022-07-27T18:58:42.900Z,99275.95
2022-07-27T19:01:10.504Z,99281.34
2022-07-27T19:03:37.464Z,99282.88
2022-07-27T19:06:08.510Z,99288.72
2022-07-27T19:08:37.438Z,99293.38
2022-07-27T19:11:04.263Z,99293.23
2022-07-27T19:13:31.083Z,99296.33
2022-07-27T19:15:59.578Z,99295.39
2022-07-27T19:18:26.504Z,99295.95
2022-07-27T19:20:53.588Z,99299.73
2022-07-27T19:23:20.473Z,99300.95
2022-07-27T19:25:47.553Z,99302.54
2022-07-27T19:28:15.319Z,99303.84
2022-07-27T19:30:42.292Z,99302.61
2022-07-27T19:33:09.213Z,99301.35
2022-07-27T19:35:36.220Z,99311.06
2022-07-27T19:38:03.178Z,99313.15
2022-07-27T19:40:46.220Z,99310.41
2022-07-27T19:43:13.788Z,99316.05
2022-07-27T19:45:40.795Z,99320.38
2022-07-27T19:48:08.393Z,99319.52
2022-07-27T19:50:35.212Z,99327.58
2022-07-27T19:53:02.106Z,99320.48
2022-07-27T19:55:28.921Z,99332.25
2022-07-27T19:57:55.739Z,99329.34
2022-07-27T20:00:22.543Z,99336.34
2022-07-27T20:02:49.488Z,99336.48
2022-07-27T20:05:16.347Z,99341.05
2022-07-27T20:07:43.542Z,99348.41
2022-07-27T20:10:10.550Z,99353.65
2022-07-27T20:12:37.326Z,99351.92
2022-07-27T20:15:04.902Z,99349.21
2022-07-27T20:17:36.840Z,99348.85
2022-07-27T20:20:07.503Z,99348.64
2022-07-27T20:22:34.411Z,99348.11
2022-07-27T20:25:02.276Z,99350.24
2022-07-27T20:27:29.084Z,99353.22
2022-07-27T20:29:55.818Z,99362.09
2022-07-27T20:32:22.594Z,99364.36
2022-07-27T20:34:49.346Z,99362.39
2022-07-27T20:37:16.287Z,99366.84
2022-07-27T20:39:43.082Z,99373.94
2022-07-27T20:42:11.030Z,99371.36
2022-07-27T20:44:37.886Z,99375.14
2022-07-27T20:47:06.293Z,99377.85
2022-07-27T20:49:34.369Z,99375.08
2022-07-27T20:52:01.838Z,99375.77
2022-07-27T20:54:29.504Z,99377.67
2022-07-27T20:56:56.975Z,99380.70
2022-07-27T20:59:24.225Z,99382.95
2022-07-27T21:01:51.279Z,99381.48
2022-07-27T21:04:19.205Z,99382.17
2022-07-27T21:06:46.141Z,99378.49
2022-07-27T21:09:13.257Z,99381.41
2022-07-27T21:11:40.298Z,99384.58
2022-07-27T21:14:07.844Z,99385.32
2022-07-27T21:16:34.656Z,99383.50
2022-07-27T21:19:01.728Z,99395.79
2022-07-27T21:21:28.666Z,99404.30
2022-07-27T21:24:14.151Z,99407.89
2022-07-27T21:26:50.414Z,99407.10
2022-07-27T21:29:17.360Z,99414.89
2022-07-27T21:31:46.713Z,99421.14
2022-07-27T21:34:16.356Z,99414.80
2022-07-27T21:36:43.413Z,99427.30
2022-07-27T21:39:10.242Z,99437.31
2022-07-27T21:41:38.775Z,99440.23
2022-07-27T21:44:05.642Z,99441.54
2022-07-27T21:46:38.208Z,99442.65
2022-07-27T21:49:05.042Z,99447.30
2022-07-27T21:51:31.867Z,99447.94
2022-07-27T21:53:58.701Z,99441.76
2022-07-27T21:56:25.461Z,99439.89
2022-07-27T21:58:52.244Z,99437.25
2022-07-27T22:01:19.121Z,99443.16
2022-07-27T22:06:42.713Z,99442.80
2022-07-27T22:09:09.572Z,99438.89
2022-07-27T22:11:36.357Z,99438.63
2022-07-27T22:14:03.114Z,99441.63
2022-07-27T22:16:30.108Z,99445.36
2022-07-27T22:18:57.300Z,99449.65
2022-07-27T22:21:24.084Z,99453.32
2022-07-27T22:23:50.910Z,99448.65
2022-07-27T22:26:17.996Z,99446.95
2022-07-27T22:28:44.844Z,99442.85
2022-07-27T22:31:21.980Z,99443.00
2022-07-27T22:33:50.352Z,99443.32
2022-07-27T22:36:17.142Z,99450.27
2022-07-27T22:38:43.897Z,99452.68
2022-07-27T22:41:10.651Z,99457.67
2022-07-27T22:43:37.445Z,99457.95
2022-07-27T22:46:04.930Z,99461.87
2022-07-27T22:48:31.905Z,99464.84
2022-07-27T22:50:58.651Z,99471.27
2022-07-27T22:53:25.423Z,99466.45
2022-07-27T22:55:52.298Z,99467.73
2022-07-27T22:58:21.827Z,99476.39
2022-07-27T23:00:59.241Z,99477.70
2022-07-27T23:03:26.467Z,99483.79
2022-07-27T23:05:53.583Z,99486.80
2022-07-27T23:08:20.333Z,99476.68
2022-07-27T23:10:47.262Z,99480.64
2022-07-27T23:13:18.490Z,99479.05
2022-07-27T23:15:45.604Z,99480.77
2022-07-27T23:18:25.931Z,99485.86
2022-07-27T23:20:55.682Z,99490.10
2022-07-27T23:23:22.476Z,99492.70
2022-07-27T23:25:53.018Z,99492.38
2022-07-27T23:28:22.117Z,99495.70
2022-07-27T23:30:51.878Z,99497.75
2022-07-27T23:33:18.675Z,99496.45
2022-07-27T23:35:45.444Z,99495.81
2022-07-27T23:38:14.861Z,99494.96
2022-07-27T23:40:41.623Z,99490.95
2022-07-27T23:43:08.532Z,99496.56
2022-07-27T23:45:35.411Z,99495.19
2022-07-27T23:48:02.843Z,99493.08
2022-07-27T23:50:29.614Z,99502.36
2022-07-27T23:52:56.388Z,99507.33
2022-07-27T23:55:23.207Z,99506.02
2022-07-27T23:57:49.981Z,99499.33
